Cold Spring, New York
Current Conditions -  °F | °C
As of 11:45 PM on Sunday 21 Dec 2014 (Local Time) from KSWF Reporting Station
Overcast Overcast  
Wind Chill: 23°   Ceiling: 2000
Heat Index: 30°   Visibility: 10mi
Dew Point: 28°   Wind: 7mph
Humidity: 93%   Direction: 60°ENE
Pressure: 30.35"   Gusts: NA
Location:  41.42°N, 73.95°W
Report Text: KSWF 220445Z 06006KT 10SM OVC020 M01/M02 A3035
Loading
Personal Weather Stations






























Interactive Weather Map New forecast layout! Learn more

10-Day Weather Forecast

Advertisements
Track Severe Weather on mobile